createdAt,value
2019-01-22T00:00:19.282Z,65.60
2019-01-22T00:02:51.561Z,65.50
2019-01-22T00:05:24.465Z,65.70
2019-01-22T00:07:57.522Z,66.00
2019-01-22T00:10:29.861Z,66.20
2019-01-22T00:13:02.385Z,66.20
2019-01-22T00:15:35.522Z,66.40
2019-01-22T00:18:09.141Z,66.20
2019-01-22T00:20:42.381Z,66.80
2019-01-22T00:23:16.143Z,66.40
2019-01-22T00:25:49.402Z,66.70
2019-01-22T00:28:23.721Z,67.00
2019-01-22T00:30:56.082Z,66.90
2019-01-22T00:33:29.081Z,67.10
2019-01-22T00:36:01.742Z,67.30
2019-01-22T00:38:33.923Z,67.20
2019-01-22T00:41:06.981Z,67.00
2019-01-22T00:43:39.783Z,67.00
2019-01-22T00:46:12.342Z,67.30
2019-01-22T00:48:44.321Z,67.30
2019-01-22T00:51:17.742Z,67.50
2019-01-22T00:53:50.603Z,67.50
2019-01-22T00:56:23.383Z,67.40
2019-01-22T00:58:55.801Z,67.30
2019-01-22T01:01:27.422Z,67.40
2019-01-22T01:04:00.362Z,67.40
2019-01-22T01:06:33.182Z,68.10
2019-01-22T01:09:07.251Z,67.40
2019-01-22T01:11:39.661Z,67.20
2019-01-22T01:14:13.422Z,67.10
2019-01-22T01:16:46.781Z,67.30
2019-01-22T01:19:19.984Z,67.30
2019-01-22T01:21:52.284Z,67.20
2019-01-22T01:24:24.062Z,67.30
2019-01-22T01:26:56.622Z,67.40
2019-01-22T01:29:29.581Z,67.30
2019-01-22T01:32:02.822Z,67.20
2019-01-22T01:34:36.162Z,67.50
2019-01-22T01:37:09.042Z,68.10
2019-01-22T01:39:42.082Z,67.40
2019-01-22T01:42:14.481Z,67.50
2019-01-22T01:44:46.882Z,67.30
2019-01-22T01:47:19.501Z,66.80
2019-01-22T01:49:52.122Z,67.00
2019-01-22T01:52:24.522Z,67.00
2019-01-22T01:54:57.301Z,66.80
2019-01-22T01:57:29.842Z,66.80
2019-01-22T02:00:02.262Z,66.70
2019-01-22T02:02:35.583Z,67.00
2019-01-22T02:05:08.542Z,67.00
2019-01-22T02:07:41.242Z,67.00
2019-01-22T02:10:15.028Z,66.90
2019-01-22T02:12:50.962Z,66.50
2019-01-22T02:15:27.722Z,66.60
2019-01-22T02:18:23.542Z,66.00
2019-01-22T02:21:30.681Z,65.90
2019-01-22T02:24:46.801Z,66.20
2019-01-22T02:28:11.081Z,66.30
2019-01-22T02:31:22.244Z,66.40
2019-01-22T02:34:33.481Z,66.20
2019-01-22T02:37:28.622Z,65.80
2019-01-22T02:40:18.601Z,66.00
2019-01-22T02:43:42.362Z,65.70
2019-01-22T02:46:54.062Z,65.30
2019-01-22T02:49:59.481Z,65.50
2019-01-22T02:52:54.602Z,65.20
2019-01-22T02:56:08.083Z,65.30
2019-01-22T02:59:24.704Z,65.20
2019-01-22T03:02:22.082Z,64.80
2019-01-22T03:05:40.242Z,64.60
2019-01-22T03:08:38.483Z,64.10
2019-01-22T03:11:51.701Z,64.70
2019-01-22T03:15:22.443Z,64.40
2019-01-22T03:18:25.701Z,64.70
2019-01-22T03:21:24.463Z,64.40
2019-01-22T03:25:01.222Z,64.40
2019-01-22T03:28:05.741Z,63.70
2019-01-22T03:31:04.923Z,64.20
2019-01-22T03:33:42.384Z,64.50
2019-01-22T03:36:52.904Z,64.60
2019-01-22T03:39:53.902Z,64.70
2019-01-22T03:42:57.802Z,64.60
2019-01-22T03:46:07.189Z,64.60
2019-01-22T03:49:24.577Z,64.60
2019-01-22T03:52:18.402Z,64.80
2019-01-22T03:55:45.583Z,64.90
2019-01-22T03:58:18.763Z,64.70
2019-01-22T04:01:20.824Z,64.10
2019-01-22T04:03:53.964Z,64.70
2019-01-22T04:06:35.081Z,65.10
2019-01-22T04:09:23.462Z,65.10
2019-01-22T04:11:55.501Z,65.10
2019-01-22T04:14:28.182Z,64.90
2019-01-22T04:17:01.403Z,64.80
2019-01-22T04:19:34.722Z,64.80
2019-01-22T04:22:09.401Z,64.80
2019-01-22T04:24:50.962Z,64.60
2019-01-22T04:27:52.941Z,64.80
2019-01-22T04:30:41.462Z,64.70
2019-01-22T04:33:41.581Z,64.90
2019-01-22T04:36:43.081Z,64.80
2019-01-22T04:40:00.263Z,64.80
2019-01-22T04:42:51.881Z,64.90
2019-01-22T04:45:56.101Z,65.00
2019-01-22T04:48:41.941Z,65.10
2019-01-22T04:51:28.101Z,65.90
2019-01-22T04:54:19.801Z,65.40
2019-01-22T04:57:16.321Z,65.30
2019-01-22T05:00:21.903Z,65.50
2019-01-22T05:03:04.662Z,65.90
2019-01-22T05:05:59.281Z,65.70
2019-01-22T05:09:08.401Z,66.00
2019-01-22T05:12:38.621Z,65.90
2019-01-22T05:15:56.821Z,65.90
2019-01-22T05:18:49.583Z,65.80
2019-01-22T05:21:47.043Z,65.80
2019-01-22T05:24:37.423Z,65.70
2019-01-22T05:27:38.761Z,66.10
2019-01-22T05:30:21.362Z,65.90
2019-01-22T05:33:28.682Z,66.10
2019-01-22T05:36:40.681Z,65.90
2019-01-22T05:39:18.501Z,65.70
2019-01-22T05:42:36.802Z,66.00
2019-01-22T05:45:38.281Z,65.70
2019-01-22T05:48:47.141Z,65.80
2019-01-22T05:52:08.764Z,65.90
2019-01-22T05:55:06.402Z,65.80
2019-01-22T05:58:19.402Z,66.30
2019-01-22T06:01:17.701Z,66.10
2019-01-22T06:04:03.766Z,65.90
2019-01-22T06:07:04.941Z,65.90
2019-01-22T06:10:20.783Z,66.00
2019-01-22T06:13:28.201Z,65.60
2019-01-22T06:16:24.582Z,66.10
2019-01-22T06:19:11.545Z,66.40
2019-01-22T06:22:30.406Z,66.40
2019-01-22T06:25:40.119Z,66.60
2019-01-22T06:28:33.959Z,67.50
2019-01-22T06:31:25.528Z,67.00
2019-01-22T06:34:28.779Z,66.60
2019-01-22T06:37:33.779Z,66.40
2019-01-22T06:40:42.768Z,66.40
2019-01-22T06:44:13.208Z,70.70
2019-01-22T06:46:59.389Z,67.90
2019-01-22T06:50:10.307Z,66.00
2019-01-22T06:53:13.249Z,65.80
2019-01-22T06:56:21.346Z,65.50
2019-01-22T06:59:07.488Z,65.30
2019-01-22T07:02:11.008Z,65.60
2019-01-22T07:04:52.827Z,66.10
2019-01-22T07:08:05.028Z,65.50
2019-01-22T07:11:17.288Z,65.60
2019-01-22T07:14:30.808Z,65.60
2019-01-22T07:17:20.647Z,65.50
2019-01-22T07:20:48.188Z,65.50
2019-01-22T07:23:51.588Z,65.90
2019-01-22T07:26:50.647Z,65.90
2019-01-22T07:30:11.628Z,65.90
2019-01-22T07:33:27.628Z,65.40
2019-01-22T07:36:50.487Z,65.10
2019-01-22T07:40:00.509Z,65.00
2019-01-22T07:43:06.308Z,65.10
2019-01-22T07:45:54.862Z,65.10
2019-01-22T07:48:40.887Z,64.80
2019-01-22T07:51:25.508Z,64.80
2019-01-22T07:54:43.690Z,64.50
2019-01-22T07:57:52.207Z,65.10
2019-01-22T08:01:01.287Z,65.00
2019-01-22T08:04:25.027Z,64.90
2019-01-22T08:07:09.127Z,65.00
2019-01-22T08:10:30.891Z,65.10
2019-01-22T08:13:25.407Z,65.30
2019-01-22T08:16:22.584Z,64.80
2019-01-22T08:19:37.447Z,64.80
2019-01-22T08:22:51.448Z,64.60
2019-01-22T08:26:08.929Z,64.30
2019-01-22T08:28:47.650Z,63.60
2019-01-22T08:31:46.488Z,63.80
2019-01-22T08:34:41.687Z,64.60
2019-01-22T08:37:33.949Z,64.00
2019-01-22T08:40:28.787Z,64.20
2019-01-22T08:43:41.012Z,64.10
2019-01-22T08:46:39.888Z,64.10
2019-01-22T08:49:55.070Z,63.80
2019-01-22T08:52:41.470Z,64.00
2019-01-22T08:56:10.067Z,63.70
2019-01-22T08:59:06.887Z,63.90
2019-01-22T09:02:09.307Z,63.90
2019-01-22T09:05:24.842Z,64.00
2019-01-22T09:08:15.327Z,64.40
2019-01-22T09:11:19.407Z,64.10
2019-01-22T09:14:30.369Z,63.80
2019-01-22T09:17:51.627Z,63.90
2019-01-22T09:20:57.767Z,64.50
2019-01-22T09:24:13.548Z,63.40
2019-01-22T09:27:05.708Z,63.10
2019-01-22T09:30:13.229Z,63.00
2019-01-22T09:33:10.262Z,62.70
2019-01-22T09:36:22.125Z,62.90
2019-01-22T09:38:54.720Z,64.00
2019-01-22T09:41:27.261Z,62.90
2019-01-22T09:43:59.400Z,63.50
2019-01-22T09:46:31.642Z,62.90
2019-01-22T09:49:04.568Z,61.90
2019-01-22T09:51:39.480Z,61.70
2019-01-22T09:54:12.724Z,61.10
2019-01-22T09:56:44.740Z,60.10
2019-01-22T09:59:17.416Z,60.50
2019-01-22T10:01:50.193Z,60.10
2019-01-22T10:04:22.653Z,60.20
2019-01-22T10:06:54.616Z,59.50
2019-01-22T10:09:26.374Z,58.20
2019-01-22T10:11:59.734Z,56.80
2019-01-22T10:14:31.908Z,55.20
2019-01-22T10:17:04.872Z,54.20
2019-01-22T10:19:38.121Z,54.10
2019-01-22T10:22:10.100Z,54.10
2019-01-22T10:24:42.400Z,53.90
2019-01-22T10:27:15.280Z,54.20
2019-01-22T10:29:48.101Z,53.00
2019-01-22T10:32:20.280Z,53.90
2019-01-22T10:34:52.920Z,53.60
2019-01-22T10:37:26.022Z,53.70
2019-01-22T10:39:58.441Z,52.50
2019-01-22T10:42:29.881Z,52.40
2019-01-22T10:45:01.846Z,51.40
2019-01-22T10:47:34.203Z,51.00
2019-01-22T10:50:08.106Z,51.80
2019-01-22T10:52:40.964Z,51.60
2019-01-22T10:55:14.204Z,51.30
2019-01-22T10:57:47.164Z,50.20
2019-01-22T11:00:31.512Z,49.90
2019-01-22T11:03:04.538Z,50.10
2019-01-22T11:05:39.272Z,50.20
2019-01-22T11:08:11.873Z,49.00
2019-01-22T11:10:45.434Z,48.90
2019-01-22T11:13:18.291Z,49.40
2019-01-22T11:15:50.111Z,50.20
2019-01-22T11:18:23.238Z,49.00
2019-01-22T11:20:55.989Z,48.00
2019-01-22T11:23:28.533Z,48.30
2019-01-22T11:26:00.351Z,47.80
2019-01-22T11:28:32.697Z,48.00
2019-01-22T11:31:05.316Z,48.20
2019-01-22T11:33:37.778Z,47.80
2019-01-22T11:36:09.498Z,47.80
2019-01-22T11:38:41.923Z,48.10
2019-01-22T11:41:14.541Z,48.40
2019-01-22T11:43:46.776Z,48.70
2019-01-22T11:46:20.017Z,49.00
2019-01-22T11:48:52.336Z,49.50
2019-01-22T11:51:25.096Z,50.10
2019-01-22T11:53:58.057Z,50.40
2019-01-22T11:56:31.056Z,50.60
2019-01-22T11:59:03.875Z,50.70
2019-01-22T12:01:36.944Z,50.40
2019-01-22T12:04:09.538Z,50.30
2019-01-22T12:06:42.655Z,50.70
2019-01-22T12:09:14.996Z,50.70
2019-01-22T12:11:47.858Z,50.40
2019-01-22T12:14:21.416Z,50.30
2019-01-22T12:16:53.537Z,51.90
2019-01-22T12:19:25.567Z,52.40
2019-01-22T12:21:57.740Z,53.00
2019-01-22T12:24:29.678Z,52.60
2019-01-22T12:27:02.998Z,52.80
2019-01-22T12:29:35.139Z,53.20
2019-01-22T12:32:08.229Z,53.10
2019-01-22T12:34:41.798Z,52.80
2019-01-22T12:37:14.567Z,53.00
2019-01-22T12:39:46.919Z,52.90
2019-01-22T12:42:19.480Z,53.20
2019-01-22T12:44:53.300Z,53.20
2019-01-22T12:47:25.159Z,53.80
2019-01-22T12:49:56.718Z,55.00
2019-01-22T12:52:29.218Z,53.10
2019-01-22T12:55:02.674Z,54.80
2019-01-22T12:57:34.918Z,53.80
2019-01-22T13:00:10.438Z,54.20
2019-01-22T13:02:42.518Z,53.30
2019-01-22T13:05:21.139Z,53.70
2019-01-22T13:07:52.798Z,54.30
2019-01-22T13:10:25.499Z,54.90
2019-01-22T13:12:57.579Z,54.70
2019-01-22T13:15:29.583Z,54.60
2019-01-22T13:18:01.941Z,54.70
2019-01-22T13:20:34.041Z,54.80
2019-01-22T13:23:07.359Z,54.30
2019-01-22T13:25:40.699Z,54.20
2019-01-22T13:28:13.358Z,54.20
2019-01-22T13:30:46.099Z,54.60
2019-01-22T13:33:19.189Z,54.80
2019-01-22T13:35:52.098Z,55.40
2019-01-22T13:38:24.978Z,55.70
2019-01-22T13:40:57.499Z,55.30
2019-01-22T13:43:29.578Z,54.80
2019-01-22T13:46:02.559Z,55.10
2019-01-22T13:48:36.172Z,54.80
2019-01-22T13:51:09.324Z,54.90
2019-01-22T13:53:42.119Z,55.10
2019-01-22T13:56:18.524Z,54.20
2019-01-22T13:58:48.118Z,54.90
2019-01-22T14:01:21.201Z,55.30
2019-01-22T14:03:54.479Z,54.80
2019-01-22T14:06:26.119Z,55.40
2019-01-22T14:08:59.102Z,55.40
2019-01-22T14:11:32.218Z,55.70
2019-01-22T14:14:04.461Z,55.80
2019-01-22T14:16:37.420Z,56.00
2019-01-22T14:19:10.418Z,56.30
2019-01-22T14:21:44.058Z,56.70
2019-01-22T14:24:17.162Z,57.30
2019-01-22T14:26:49.879Z,57.70
2019-01-22T14:29:23.049Z,56.80
2019-01-22T14:31:55.898Z,57.00
2019-01-22T14:34:29.518Z,56.80
2019-01-22T14:37:00.462Z,56.70
2019-01-22T14:39:33.418Z,56.10
2019-01-22T14:42:05.478Z,56.30
2019-01-22T14:44:38.078Z,56.70
2019-01-22T14:47:11.639Z,57.10
2019-01-22T14:49:43.379Z,57.00
2019-01-22T14:52:16.358Z,57.40
2019-01-22T14:54:48.318Z,57.30
2019-01-22T14:57:21.492Z,56.90
2019-01-22T14:59:53.821Z,57.10
2019-01-22T15:02:25.842Z,57.50
2019-01-22T15:04:58.378Z,57.70
2019-01-22T15:07:31.552Z,57.50
2019-01-22T15:10:04.840Z,57.60
2019-01-22T15:12:37.141Z,57.60
2019-01-22T15:15:10.703Z,57.70
2019-01-22T15:17:43.411Z,57.90
2019-01-22T15:20:18.454Z,58.40
2019-01-22T15:22:50.823Z,58.40
2019-01-22T15:25:23.609Z,58.60
2019-01-22T15:27:55.187Z,58.40
2019-01-22T15:30:31.929Z,58.40
2019-01-22T15:33:04.311Z,58.70
2019-01-22T15:35:36.280Z,59.30
2019-01-22T15:38:08.659Z,59.10
2019-01-22T15:40:41.619Z,59.20
2019-01-22T15:43:14.200Z,59.40
2019-01-22T15:45:46.338Z,59.40
2019-01-22T15:48:19.357Z,59.50
2019-01-22T15:50:51.538Z,60.00
2019-01-22T15:53:23.838Z,60.00
2019-01-22T15:55:56.142Z,60.10
2019-01-22T15:58:30.986Z,60.20
2019-01-22T16:01:03.407Z,60.30
2019-01-22T16:03:36.107Z,60.50
2019-01-22T16:06:08.578Z,61.70
2019-01-22T16:08:41.798Z,61.10
2019-01-22T16:11:13.357Z,61.00
2019-01-22T16:13:45.898Z,60.70
2019-01-22T16:16:20.019Z,60.40
2019-01-22T16:18:53.627Z,60.70
2019-01-22T16:21:25.392Z,60.90
2019-01-22T16:23:58.007Z,61.20
2019-01-22T16:26:30.482Z,61.30
2019-01-22T16:29:03.824Z,60.90
2019-01-22T16:31:36.737Z,61.00
2019-01-22T16:34:09.697Z,61.20
2019-01-22T16:36:42.338Z,60.80
2019-01-22T16:39:15.539Z,61.20
2019-01-22T16:41:48.939Z,60.30
2019-01-22T16:44:20.917Z,60.90
2019-01-22T16:46:53.545Z,61.10
2019-01-22T16:49:26.598Z,61.40
2019-01-22T16:51:59.215Z,61.60
2019-01-22T16:54:32.356Z,62.30
2019-01-22T16:57:04.996Z,62.30
2019-01-22T16:59:38.166Z,61.50
2019-01-22T17:02:10.856Z,61.10
2019-01-22T17:04:42.936Z,61.50
2019-01-22T17:07:15.656Z,60.90
2019-01-22T17:09:48.135Z,61.10
2019-01-22T17:12:20.376Z,61.00
2019-01-22T17:14:53.696Z,61.30
2019-01-22T17:17:26.117Z,61.50
2019-01-22T17:19:59.056Z,61.80
2019-01-22T17:22:31.462Z,61.40
2019-01-22T17:25:03.376Z,61.40
2019-01-22T17:27:36.455Z,61.50
2019-01-22T17:30:11.816Z,61.50
2019-01-22T17:32:49.896Z,61.50
2019-01-22T17:35:23.196Z,61.00
2019-01-22T17:37:55.755Z,61.40
2019-01-22T17:40:27.875Z,61.60
2019-01-22T17:42:59.978Z,61.20
2019-01-22T17:45:32.774Z,61.30
2019-01-22T17:48:06.096Z,61.50
2019-01-22T17:50:38.295Z,61.50
2019-01-22T17:53:10.877Z,61.00
2019-01-22T17:55:44.196Z,61.30
2019-01-22T17:58:16.516Z,61.10
2019-01-22T18:00:49.260Z,60.90
2019-01-22T18:03:21.555Z,61.10
2019-01-22T18:05:56.315Z,60.90
2019-01-22T18:08:28.677Z,60.90
2019-01-22T18:11:01.264Z,61.10
2019-01-22T18:13:34.696Z,60.70
2019-01-22T18:16:07.835Z,60.40
2019-01-22T18:18:40.376Z,60.40
2019-01-22T18:21:12.818Z,60.40
2019-01-22T18:23:45.837Z,60.50
2019-01-22T18:26:19.175Z,60.50
2019-01-22T18:28:51.789Z,60.50
2019-01-22T18:31:24.299Z,60.40
2019-01-22T18:33:56.375Z,60.60
2019-01-22T18:36:28.275Z,60.50
2019-01-22T18:39:01.419Z,60.90
2019-01-22T18:41:34.736Z,60.80
2019-01-22T18:44:07.415Z,61.00
2019-01-22T18:46:39.656Z,60.90
2019-01-22T18:49:12.178Z,60.90
2019-01-22T18:51:45.696Z,60.80
2019-01-22T18:54:18.255Z,60.70
2019-01-22T18:56:51.396Z,60.80
2019-01-22T18:59:23.177Z,61.10
2019-01-22T19:01:54.456Z,61.00
2019-01-22T19:04:26.056Z,61.10
2019-01-22T19:06:59.596Z,61.10
2019-01-22T19:09:31.656Z,60.90
2019-01-22T19:12:04.335Z,60.90
2019-01-22T19:14:37.598Z,61.10
2019-01-22T19:17:10.156Z,61.20
2019-01-22T19:19:43.016Z,61.20
2019-01-22T19:22:15.996Z,61.10
2019-01-22T19:24:48.617Z,60.90
2019-01-22T19:27:21.739Z,60.80
2019-01-22T19:29:53.336Z,60.80
2019-01-22T19:32:26.237Z,60.80
2019-01-22T19:34:58.757Z,60.90
2019-01-22T19:37:30.796Z,61.00
2019-01-22T19:40:03.157Z,60.80
2019-01-22T19:42:35.996Z,60.70
2019-01-22T19:45:10.617Z,61.00
2019-01-22T19:47:43.918Z,61.30
2019-01-22T19:50:16.716Z,61.30
2019-01-22T19:52:49.016Z,61.20
2019-01-22T19:55:21.696Z,61.30
2019-01-22T19:57:53.961Z,61.10
2019-01-22T20:00:28.453Z,61.00
2019-01-22T20:03:00.855Z,61.30
2019-01-22T20:05:34.054Z,61.30
2019-01-22T20:08:08.154Z,61.50
2019-01-22T20:10:41.195Z,61.50
2019-01-22T20:13:12.835Z,61.60
2019-01-22T20:15:45.814Z,61.70
2019-01-22T20:18:18.415Z,61.60
2019-01-22T20:20:50.561Z,61.60
2019-01-22T20:23:23.614Z,61.60
2019-01-22T20:25:55.714Z,61.40
2019-01-22T20:28:28.094Z,61.50
2019-01-22T20:31:01.115Z,61.70
2019-01-22T20:33:33.354Z,61.90
2019-01-22T20:36:06.015Z,62.10
2019-01-22T20:38:38.695Z,61.90
2019-01-22T20:41:12.094Z,62.00
2019-01-22T20:43:44.737Z,62.20
2019-01-22T20:46:16.836Z,61.70
2019-01-22T20:48:49.958Z,62.00
2019-01-22T20:51:22.216Z,62.20
2019-01-22T20:53:54.689Z,62.50
2019-01-22T20:56:27.076Z,62.70
2019-01-22T20:58:59.674Z,62.60
2019-01-22T21:01:32.376Z,62.50
2019-01-22T21:04:05.145Z,62.30
2019-01-22T21:06:37.903Z,62.30
2019-01-22T21:09:12.657Z,62.30
2019-01-22T21:11:45.863Z,62.30
2019-01-22T21:14:18.403Z,62.00
2019-01-22T21:16:51.343Z,61.90
2019-01-22T21:19:23.903Z,61.70
2019-01-22T21:21:56.684Z,61.50
2019-01-22T21:24:28.903Z,61.70
2019-01-22T21:27:01.425Z,61.70
2019-01-22T21:29:34.427Z,61.80
2019-01-22T21:32:06.503Z,61.10
2019-01-22T21:34:38.545Z,61.10
2019-01-22T21:37:10.686Z,60.80
2019-01-22T21:39:44.043Z,61.20
2019-01-22T21:42:16.763Z,61.60
2019-01-22T21:44:50.423Z,61.50
2019-01-22T21:47:22.484Z,61.60
2019-01-22T21:49:55.183Z,61.90
2019-01-22T21:52:27.784Z,62.20
2019-01-22T21:55:00.703Z,61.80
2019-01-22T21:57:32.862Z,61.40
2019-01-22T22:00:05.383Z,61.70
2019-01-22T22:02:38.443Z,61.80
2019-01-22T22:05:11.603Z,61.70
2019-01-22T22:07:44.284Z,61.50
2019-01-22T22:10:18.583Z,61.70
2019-01-22T22:12:50.884Z,61.80
2019-01-22T22:15:24.482Z,61.80
2019-01-22T22:17:57.202Z,62.00
2019-01-22T22:20:30.603Z,61.80
2019-01-22T22:23:02.522Z,61.20
2019-01-22T22:25:35.343Z,61.30
2019-01-22T22:28:08.250Z,61.80
2019-01-22T22:30:42.583Z,62.20
2019-01-22T22:33:15.470Z,62.20
2019-01-22T22:35:48.083Z,62.50
2019-01-22T22:38:20.824Z,62.40
2019-01-22T22:40:54.206Z,62.60
2019-01-22T22:43:27.282Z,62.00
2019-01-22T22:45:59.207Z,61.10
2019-01-22T22:48:31.304Z,61.90
2019-01-22T22:51:03.803Z,62.10
2019-01-22T22:53:36.382Z,61.50
2019-01-22T22:56:09.126Z,60.50
2019-01-22T22:58:41.584Z,60.50
2019-01-22T23:01:44.842Z,60.80
2019-01-22T23:04:17.203Z,61.10
2019-01-22T23:06:49.833Z,62.10
2019-01-22T23:09:22.810Z,62.80
2019-01-22T23:11:54.864Z,63.20
2019-01-22T23:14:27.503Z,63.30
2019-01-22T23:17:01.105Z,63.30
2019-01-22T23:19:33.643Z,63.30
2019-01-22T23:22:06.704Z,63.30
2019-01-22T23:24:38.822Z,63.00
2019-01-22T23:27:11.123Z,62.70
2019-01-22T23:29:44.063Z,62.70
2019-01-22T23:32:17.699Z,62.70
2019-01-22T23:34:49.923Z,62.30
2019-01-22T23:37:23.004Z,61.90
2019-01-22T23:39:55.402Z,62.00
2019-01-22T23:42:27.624Z,62.20
2019-01-22T23:45:01.226Z,62.40
2019-01-22T23:47:34.826Z,61.40
2019-01-22T23:50:07.405Z,60.80
2019-01-22T23:52:39.843Z,60.60
2019-01-22T23:55:12.324Z,60.50
2019-01-22T23:57:46.122Z,60.50
